Time;durP1;ratioP1;P1;durP2;ratioP2;P2;SDS_P1;SDS_P2;PMS_P1;PMS_P2;Temp;Humidity;BMP_temperature;BMP_pressure;BME280_temperature;BME280_humidity;BME280_pressure;Samples;Min_cycle;Max_cycle;Signal;HPM_P1;HPM_P2
2023/05/12 00:00:06;;;;;;;29.10;21.15;;;14.90;99.90;;;;;;5072951;28;20064;-66
2023/05/12 00:02:41;;;;;;;25.98;20.05;;;14.80;99.90;;;;;;5057716;28;20041;-64
2023/05/12 00:05:08;;;;;;;26.30;20.05;;;14.80;99.90;;;;;;5056044;28;20123;-65
2023/05/12 00:07:33;;;;;;;24.58;19.00;;;14.80;99.90;;;;;;5072844;28;20312;-65
2023/05/12 00:09:59;;;;;;;24.50;19.10;;;14.80;99.90;;;;;;5057355;28;20043;-66
2023/05/12 00:12:25;;;;;;;25.15;19.60;;;14.80;99.90;;;;;;5056766;28;20475;-66
2023/05/12 00:14:51;;;;;;;24.55;19.40;;;14.70;99.90;;;;;;5056911;28;20032;-65
2023/05/12 00:17:17;;;;;;;26.83;19.95;;;14.70;99.90;;;;;;5056763;28;20044;-65
2023/05/12 00:19:43;;;;;;;29.10;20.73;;;14.80;99.90;;;;;;5056798;28;20025;-65
2023/05/12 00:22:10;;;;;;;30.17;21.80;;;14.80;99.90;;;;;;5056083;28;20079;-66
2023/05/12 00:24:36;;;;;;;26.25;20.23;;;14.80;99.90;;;;;;5056714;28;20064;-66
2023/05/12 00:27:02;;;;;;;26.90;20.88;;;14.80;99.90;;;;;;5072731;28;20037;-67
2023/05/12 00:29:28;;;;;;;26.70;20.13;;;14.80;99.90;;;;;;5055923;28;20418;-68
2023/05/12 00:31:57;;;;;;;28.90;22.08;;;14.80;99.90;;;;;;5022688;28;20049;-68
2023/05/12 00:34:23;;;;;;;29.90;21.00;;;14.80;99.90;;;;;;5072548;28;20029;-69
2023/05/12 00:36:48;;;;;;;25.30;19.58;;;14.70;99.90;;;;;;5056554;28;20083;-70
2023/05/12 00:39:14;;;;;;;27.98;21.35;;;14.70;99.90;;;;;;5072442;28;20068;-70
2023/05/12 00:41:40;;;;;;;31.10;21.88;;;14.70;99.90;;;;;;5056541;28;20122;-69
2023/05/12 00:44:06;;;;;;;29.25;22.73;;;14.70;99.90;;;;;;5072481;28;20040;-70
2023/05/12 00:46:32;;;;;;;28.75;22.48;;;14.80;99.90;;;;;;5072503;28;20041;-70
2023/05/12 00:48:58;;;;;;;29.60;21.55;;;14.80;99.90;;;;;;5072321;28;20033;-69
2023/05/12 00:51:25;;;;;;;28.48;22.17;;;14.70;99.90;;;;;;5072479;28;20427;-70
2023/05/12 00:53:51;;;;;;;31.55;23.75;;;14.80;99.90;;;;;;5060464;28;20029;-70
2023/05/12 00:56:18;;;;;;;30.48;23.27;;;14.80;99.90;;;;;;5076603;28;20110;-70
2023/05/12 00:58:45;;;;;;;28.02;22.17;;;14.80;99.90;;;;;;5060476;28;20029;-70
2023/05/12 01:01:12;;;;;;;34.25;23.92;;;14.80;99.90;;;;;;5059535;28;20033;-69
2023/05/12 01:03:38;;;;;;;30.90;22.77;;;14.80;99.90;;;;;;5059446;28;20044;-69
2023/05/12 01:06:08;;;;;;;34.75;24.75;;;14.80;99.90;;;;;;5042912;28;20316;-69
2023/05/12 01:08:35;;;;;;;30.95;23.52;;;14.80;99.90;;;;;;5059496;28;20078;-70
2023/05/12 01:11:01;;;;;;;32.55;24.23;;;14.80;99.90;;;;;;5060377;28;20337;-69
2023/05/12 01:13:27;;;;;;;35.50;25.00;;;14.90;99.90;;;;;;5076355;28;20025;-69
2023/05/12 01:15:57;;;;;;;30.67;23.13;;;14.90;99.90;;;;;;5076055;28;20435;-71
2023/05/12 01:18:25;;;;;;;31.63;23.25;;;14.80;99.90;;;;;;5043527;28;20028;-70
2023/05/12 01:20:54;;;;;;;30.67;23.30;;;14.80;99.90;;;;;;5060032;28;20120;-70
2023/05/12 01:23:26;;;;;;;30.70;23.48;;;14.80;99.90;;;;;;5060256;28;20333;-70
2023/05/12 01:25:54;;;;;;;30.67;23.60;;;14.80;99.90;;;;;;5076373;28;20095;-70
2023/05/12 01:28:21;;;;;;;33.97;22.92;;;14.80;99.90;;;;;;5059891;28;20060;-70
2023/05/12 01:30:48;;;;;;;31.02;21.75;;;14.80;99.90;;;;;;5059201;28;20036;-70
2023/05/12 01:33:14;;;;;;;29.17;22.25;;;14.80;99.90;;;;;;5059173;28;20071;-71
2023/05/12 01:35:40;;;;;;;30.90;22.58;;;14.70;99.90;;;;;;5076302;28;20021;-71
2023/05/12 01:38:06;;;;;;;29.73;22.40;;;14.70;99.90;;;;;;5060770;28;20116;-72
2023/05/12 01:40:35;;;;;;;29.13;21.80;;;14.80;99.90;;;;;;5077437;28;20375;-72
2023/05/12 01:43:01;;;;;;;28.02;21.05;;;14.80;99.90;;;;;;5061580;28;20033;-71
2023/05/12 01:45:32;;;;;;;27.60;21.23;;;14.70;99.90;;;;;;5077078;28;20063;-72
2023/05/12 01:47:58;;;;;;;26.77;20.05;;;14.70;99.90;;;;;;5077348;28;20404;-72
2023/05/12 01:50:23;;;;;;;26.42;19.98;;;14.70;99.90;;;;;;5061459;28;20032;-72
2023/05/12 01:52:49;;;;;;;24.23;19.40;;;14.60;99.90;;;;;;5061848;28;20052;-71
2023/05/12 01:55:17;;;;;;;24.42;18.40;;;14.60;99.90;;;;;;5061299;28;20449;-72
2023/05/12 01:57:48;;;;;;;18.95;15.50;;;14.70;99.90;;;;;;5060385;28;20085;-72
2023/05/12 02:00:14;;;;;;;15.93;12.35;;;14.60;99.90;;;;;;5076801;28;20072;-72
2023/05/12 02:02:41;;;;;;;14.38;11.40;;;14.50;99.90;;;;;;5060528;28;20080;-73
2023/05/12 02:05:08;;;;;;;13.50;10.82;;;14.40;99.90;;;;;;5076275;28;20063;-73
2023/05/12 02:07:34;;;;;;;11.30;10.07;;;14.30;99.90;;;;;;5059943;28;20055;-72
2023/05/12 02:10:00;;;;;;;12.63;10.18;;;14.20;99.90;;;;;;5058894;28;20053;-72
2023/05/12 02:12:26;;;;;;;13.75;11.30;;;14.20;99.90;;;;;;5060380;28;20086;-71
2023/05/12 02:14:52;;;;;;;13.93;11.15;;;14.20;99.90;;;;;;5060319;28;20017;-73
2023/05/12 02:17:18;;;;;;;13.23;10.02;;;14.30;99.90;;;;;;5060279;28;20263;-73
2023/05/12 02:19:45;;;;;;;15.10;9.95;;;14.30;99.90;;;;;;5076309;28;20025;-71
2023/05/12 02:22:13;;;;;;;12.65;8.80;;;14.20;99.90;;;;;;5060465;28;20200;-73
2023/05/12 02:24:39;;;;;;;11.25;8.80;;;14.20;99.90;;;;;;5060584;28;20119;-72
2023/05/12 02:27:06;;;;;;;11.25;8.40;;;14.20;99.90;;;;;;5077142;28;20427;-72
2023/05/12 02:29:31;;;;;;;9.48;8.48;;;14.20;99.90;;;;;;5060549;28;20029;-73
2023/05/12 02:31:58;;;;;;;12.73;8.93;;;14.10;99.90;;;;;;5076149;28;20420;-71
2023/05/12 02:34:24;;;;;;;11.23;8.23;;;14.10;99.90;;;;;;5076825;28;20072;-72
2023/05/12 02:36:51;;;;;;;11.10;9.52;;;14.00;99.90;;;;;;5059058;28;20029;-72
2023/05/12 02:39:16;;;;;;;12.45;9.18;;;14.00;99.90;;;;;;5061322;28;20035;-72
2023/05/12 02:41:42;;;;;;;10.25;8.98;;;14.00;99.90;;;;;;5075258;28;20033;-72
2023/05/12 02:44:08;;;;;;;12.77;9.18;;;14.00;99.90;;;;;;5059607;28;20068;-72
2023/05/12 02:46:34;;;;;;;13.13;9.20;;;13.90;99.90;;;;;;5076476;28;20095;-72
2023/05/12 02:49:00;;;;;;;10.27;8.48;;;13.90;99.90;;;;;;5076536;28;20036;-72
2023/05/12 02:51:26;;;;;;;11.88;9.55;;;13.90;99.90;;;;;;5074796;28;20021;-72
2023/05/12 02:53:51;;;;;;;12.82;9.20;;;13.80;99.90;;;;;;5075625;28;20025;-72
2023/05/12 02:56:17;;;;;;;13.85;9.20;;;13.80;99.90;;;;;;5060555;28;20144;-69
2023/05/12 02:58:43;;;;;;;12.65;9.30;;;13.80;99.90;;;;;;5075252;28;20329;-70
2023/05/12 03:01:10;;;;;;;11.55;9.13;;;13.90;99.90;;;;;;5058255;28;20112;-72
2023/05/12 03:03:36;;;;;;;11.32;8.55;;;13.90;99.90;;;;;;5057981;28;20320;-70
2023/05/12 03:06:03;;;;;;;10.52;8.63;;;13.80;99.90;;;;;;5058662;28;20052;-71
2023/05/12 03:08:29;;;;;;;13.43;9.07;;;13.80;99.90;;;;;;5075570;28;20033;-71
2023/05/12 03:10:55;;;;;;;16.58;8.50;;;13.80;99.90;;;;;;5075815;28;20029;-71
2023/05/12 03:13:21;;;;;;;11.85;9.10;;;13.70;99.90;;;;;;5075617;28;20029;-72
2023/05/12 03:15:47;;;;;;;15.32;9.23;;;13.70;99.90;;;;;;5075422;28;20029;-71
2023/05/12 03:18:12;;;;;;;13.02;9.73;;;13.80;99.90;;;;;;5074800;28;20025;-71
2023/05/12 03:20:38;;;;;;;16.17;9.82;;;13.80;99.90;;;;;;5057929;28;20033;-72
2023/05/12 03:23:04;;;;;;;13.35;9.57;;;13.80;99.90;;;;;;5074762;28;20110;-72
2023/05/12 03:25:30;;;;;;;10.95;8.13;;;13.90;99.90;;;;;;5074659;28;20036;-71
2023/05/12 03:27:56;;;;;;;10.63;8.23;;;13.80;99.90;;;;;;5057972;28;20033;-73
2023/05/12 03:30:22;;;;;;;12.65;8.68;;;13.80;99.90;;;;;;5075153;28;20411;-70
2023/05/12 03:32:48;;;;;;;9.77;7.70;;;13.80;99.90;;;;;;5059551;28;20028;-71
2023/05/12 03:35:14;;;;;;;10.15;7.35;;;13.90;99.90;;;;;;5074609;28;20064;-69
2023/05/12 03:37:39;;;;;;;11.43;7.32;;;13.90;99.90;;;;;;5058032;28;20059;-68
2023/05/12 03:40:07;;;;;;;14.38;7.10;;;13.80;99.90;;;;;;5073475;28;20150;-69
2023/05/12 03:42:33;;;;;;;9.35;6.80;;;13.80;99.90;;;;;;5073346;28;20029;-68
2023/05/12 03:44:58;;;;;;;9.40;7.28;;;13.70;99.90;;;;;;5057065;28;20448;-65
2023/05/12 03:47:24;;;;;;;11.52;7.13;;;13.60;99.90;;;;;;5057396;28;20108;-70
2023/05/12 03:49:50;;;;;;;8.32;6.07;;;13.60;99.90;;;;;;5073125;28;20052;-68
2023/05/12 03:52:16;;;;;;;10.65;7.32;;;13.60;99.90;;;;;;5057183;28;20392;-62
2023/05/12 03:54:43;;;;;;;10.00;7.32;;;13.50;99.90;;;;;;5057201;28;20029;-69
2023/05/12 03:57:11;;;;;;;9.52;6.63;;;13.50;99.90;;;;;;5056262;28;20044;-61
2023/05/12 03:59:37;;;;;;;7.55;6.10;;;13.50;99.90;;;;;;5057115;28;20021;-65
2023/05/12 04:02:03;;;;;;;10.25;6.45;;;13.40;99.90;;;;;;5056890;28;20415;-61
2023/05/12 04:04:29;;;;;;;7.28;6.40;;;13.40;99.90;;;;;;5056778;28;20128;-64
2023/05/12 04:06:55;;;;;;;10.10;6.88;;;13.30;99.90;;;;;;5056770;28;20037;-61
2023/05/12 04:09:20;;;;;;;9.30;6.38;;;13.40;99.90;;;;;;5057001;28;20432;-62
2023/05/12 04:11:46;;;;;;;7.72;6.63;;;13.30;99.90;;;;;;5057084;28;20092;-66
2023/05/12 04:14:12;;;;;;;8.15;6.25;;;13.30;99.90;;;;;;5056807;28;20282;-62
2023/05/12 04:16:39;;;;;;;8.25;6.57;;;13.30;99.90;;;;;;5072689;28;20037;-64
2023/05/12 04:19:05;;;;;;;11.02;6.70;;;13.20;99.90;;;;;;5056983;28;20332;-70
2023/05/12 04:21:31;;;;;;;11.45;7.28;;;13.20;99.90;;;;;;5057523;28;20029;-69
2023/05/12 04:23:58;;;;;;;11.68;7.03;;;13.20;99.90;;;;;;5056185;28;20040;-67
2023/05/12 04:26:26;;;;;;;10.45;7.15;;;13.20;99.90;;;;;;5074048;28;20032;-71
2023/05/12 04:28:52;;;;;;;9.27;6.80;;;13.20;99.90;;;;;;5063110;28;20037;-66
2023/05/12 04:31:18;;;;;;;8.60;6.57;;;13.10;99.90;;;;;;5063043;28;20051;-65
2023/05/12 04:33:44;;;;;;;9.70;6.38;;;13.00;99.90;;;;;;5078933;28;20028;-61
2023/05/12 04:36:12;;;;;;;7.88;6.75;;;13.00;99.90;;;;;;5078923;28;20040;-63
2023/05/12 04:38:42;;;;;;;8.48;6.57;;;13.00;99.90;;;;;;5079005;28;20116;-63
2023/05/12 04:41:08;;;;;;;9.30;6.93;;;13.10;99.90;;;;;;5078862;28;20033;-62
2023/05/12 04:43:34;;;;;;;9.27;7.30;;;13.10;99.90;;;;;;5062879;28;20037;-59
2023/05/12 04:46:01;;;;;;;9.82;6.32;;;13.00;99.90;;;;;;5062925;28;20040;-58
2023/05/12 04:48:28;;;;;;;9.98;7.60;;;12.90;99.90;;;;;;5079001;28;20029;-62
2023/05/12 04:50:57;;;;;;;11.27;7.88;;;12.90;99.90;;;;;;5078653;28;20049;-61
2023/05/12 04:53:23;;;;;;;10.60;7.32;;;13.00;99.90;;;;;;5063181;28;20401;-60
2023/05/12 04:55:50;;;;;;;10.40;7.78;;;12.90;99.90;;;;;;5062847;28;20044;-58
2023/05/12 04:58:15;;;;;;;12.73;8.23;;;13.00;99.90;;;;;;5063057;28;20167;-58
2023/05/12 05:00:42;;;;;;;11.88;8.57;;;13.00;99.90;;;;;;5078690;28;20048;-60
2023/05/12 05:03:08;;;;;;;11.75;8.60;;;13.00;99.90;;;;;;5078644;28;20025;-60
2023/05/12 05:05:34;;;;;;;13.98;9.98;;;12.90;99.90;;;;;;5062591;28;20423;-61
2023/05/12 05:08:00;;;;;;;12.40;9.65;;;12.90;99.90;;;;;;5078812;28;20321;-61
2023/05/12 05:10:26;;;;;;;16.00;11.55;;;12.90;99.90;;;;;;5078669;28;20041;-62
2023/05/12 05:12:52;;;;;;;14.05;10.85;;;12.90;99.90;;;;;;5061941;28;20021;-59
2023/05/12 05:15:18;;;;;;;17.73;11.68;;;13.00;99.90;;;;;;5079448;28;20025;-63
2023/05/12 05:17:48;;;;;;;15.50;11.23;;;13.00;99.90;;;;;;5062266;28;20045;-60
2023/05/12 05:20:15;;;;;;;15.95;12.20;;;13.00;99.90;;;;;;5078466;28;20036;-63
2023/05/12 05:22:41;;;;;;;17.23;12.80;;;13.00;99.90;;;;;;5078543;28;20040;-59
2023/05/12 05:25:10;;;;;;;16.08;12.18;;;13.00;99.90;;;;;;5062755;28;20119;-60
2023/05/12 05:27:37;;;;;;;16.15;12.63;;;13.00;99.90;;;;;;5062750;28;20025;-60
2023/05/12 05:30:06;;;;;;;16.00;11.88;;;12.90;99.90;;;;;;5045474;28;20029;-61
2023/05/12 05:32:35;;;;;;;14.48;11.63;;;12.90;99.90;;;;;;5045244;28;20029;-59
2023/05/12 05:35:01;;;;;;;15.73;11.90;;;13.00;99.90;;;;;;5078539;28;20050;-59
2023/05/12 05:37:28;;;;;;;15.73;12.52;;;13.00;99.90;;;;;;5061902;28;20082;-60
2023/05/12 05:39:55;;;;;;;16.67;12.73;;;13.00;99.90;;;;;;5057517;28;20044;-63
2023/05/12 05:42:21;;;;;;;16.17;12.60;;;13.00;99.90;;;;;;5059339;28;20033;-62
2023/05/12 05:44:47;;;;;;;15.27;12.32;;;13.00;99.90;;;;;;5058659;28;20044;-61
2023/05/12 05:47:13;;;;;;;18.13;13.38;;;13.10;99.90;;;;;;5075278;28;20059;-61
2023/05/12 05:49:39;;;;;;;19.73;12.70;;;13.10;99.90;;;;;;5041973;28;20033;-59
2023/05/12 05:52:05;;;;;;;15.00;12.68;;;13.00;99.90;;;;;;5074901;28;20040;-60
2023/05/12 05:54:31;;;;;;;16.25;13.20;;;13.00;99.90;;;;;;5059722;28;20099;-61
2023/05/12 05:57:00;;;;;;;15.73;12.57;;;13.10;99.90;;;;;;5074722;28;20025;-61
2023/05/12 05:59:27;;;;;;;16.92;12.82;;;13.00;99.90;;;;;;5058322;28;20037;-59
2023/05/12 06:01:53;;;;;;;15.23;13.38;;;13.00;99.90;;;;;;5058209;28;20029;-60
2023/05/12 06:04:19;;;;;;;14.80;11.68;;;13.10;99.90;;;;;;5074929;28;20053;-58
2023/05/12 06:06:45;;;;;;;14.60;12.52;;;13.10;99.90;;;;;;5075214;28;20043;-62
2023/05/12 06:09:11;;;;;;;15.02;12.70;;;13.10;99.90;;;;;;5058247;28;20124;-60
2023/05/12 06:11:38;;;;;;;15.68;13.45;;;13.10;99.90;;;;;;5058801;28;20106;-59
2023/05/12 06:14:04;;;;;;;14.82;13.23;;;13.20;99.90;;;;;;5058184;28;20040;-59
2023/05/12 06:16:30;;;;;;;16.60;13.43;;;13.30;99.90;;;;;;5058751;28;20021;-60
2023/05/12 06:18:56;;;;;;;15.32;13.23;;;13.30;99.90;;;;;;5059351;28;20410;-59
2023/05/12 06:21:22;;;;;;;15.13;12.85;;;13.20;99.90;;;;;;5041418;28;20438;-61
2023/05/12 06:23:48;;;;;;;15.00;12.73;;;13.30;99.90;;;;;;5058523;28;20036;-61
2023/05/12 06:26:14;;;;;;;14.07;12.30;;;13.50;99.90;;;;;;5058230;28;20297;-62
2023/05/12 06:28:40;;;;;;;15.77;12.93;;;13.60;99.90;;;;;;5074454;28;20033;-61
2023/05/12 06:31:07;;;;;;;13.65;12.25;;;13.70;99.90;;;;;;5058015;28;20044;-60
2023/05/12 06:33:33;;;;;;;14.02;12.40;;;13.70;99.90;;;;;;5058431;28;20033;-60
2023/05/12 06:35:59;;;;;;;13.98;12.32;;;13.60;99.90;;;;;;5058402;28;20037;-62
2023/05/12 06:38:25;;;;;;;16.35;13.25;;;13.60;99.90;;;;;;5058424;28;20040;-60
2023/05/12 06:40:50;;;;;;;14.80;12.68;;;13.60;99.90;;;;;;5058874;28;20036;-60
2023/05/12 06:43:16;;;;;;;13.90;11.95;;;13.70;99.90;;;;;;5074185;28;20351;-60
2023/05/12 06:45:44;;;;;;;15.35;12.30;;;13.60;99.90;;;;;;5057552;28;20037;-60
2023/05/12 06:48:10;;;;;;;14.30;11.30;;;13.50;99.90;;;;;;5058206;28;20104;-61
2023/05/12 06:50:36;;;;;;;15.55;12.30;;;13.50;99.90;;;;;;5058094;28;20388;-60
2023/05/12 06:53:02;;;;;;;16.55;10.63;;;13.60;99.90;;;;;;5057964;28;20021;-61
2023/05/12 06:55:28;;;;;;;14.32;11.60;;;13.70;99.90;;;;;;5057913;28;20354;-62
2023/05/12 06:57:54;;;;;;;11.73;10.43;;;13.70;99.90;;;;;;5073873;28;20069;-63
2023/05/12 07:00:24;;;;;;;13.38;10.75;;;13.70;99.90;;;;;;5057929;28;20055;-61
2023/05/12 07:02:51;;;;;;;12.95;10.75;;;13.70;99.90;;;;;;5057096;28;20053;-61
2023/05/12 07:05:17;;;;;;;12.95;9.65;;;13.70;99.90;;;;;;5057740;28;20053;-62
2023/05/12 07:07:43;;;;;;;12.43;9.38;;;13.70;99.90;;;;;;5057828;28;20035;-62
2023/05/12 07:10:09;;;;;;;9.82;8.80;;;13.60;99.90;;;;;;5057604;28;20384;-64
2023/05/12 07:12:37;;;;;;;10.68;8.48;;;13.60;99.90;;;;;;5073396;28;20037;-60
2023/05/12 07:15:03;;;;;;;10.05;8.20;;;13.60;99.90;;;;;;5057684;28;20131;-61
2023/05/12 07:17:29;;;;;;;10.80;9.05;;;13.60;99.90;;;;;;5057674;28;20043;-61
2023/05/12 07:19:55;;;;;;;11.50;9.27;;;13.60;99.90;;;;;;5057462;28;20028;-62
2023/05/12 07:22:22;;;;;;;12.80;9.80;;;13.70;99.90;;;;;;5057610;28;20097;-59
2023/05/12 07:24:48;;;;;;;12.63;10.13;;;13.70;99.90;;;;;;5057400;28;20033;-62
2023/05/12 07:27:14;;;;;;;13.65;9.93;;;13.80;99.90;;;;;;5073072;28;20028;-61
2023/05/12 07:29:40;;;;;;;14.18;10.98;;;13.80;99.90;;;;;;5057833;28;20116;-58
2023/05/12 07:32:06;;;;;;;15.65;11.60;;;13.80;99.90;;;;;;5056587;28;20120;-59
2023/05/12 07:34:32;;;;;;;15.40;11.40;;;13.70;99.90;;;;;;5057591;28;20037;-58
2023/05/12 07:37:01;;;;;;;18.95;12.57;;;13.70;99.90;;;;;;5056533;28;20024;-58
2023/05/12 07:39:29;;;;;;;18.55;13.05;;;13.70;99.90;;;;;;5057143;28;20035;-57
2023/05/12 07:41:55;;;;;;;22.92;14.45;;;13.80;99.90;;;;;;5057955;28;20400;-58
2023/05/12 07:44:21;;;;;;;20.33;14.50;;;13.80;99.90;;;;;;5056225;28;20025;-58
2023/05/12 07:46:46;;;;;;;25.33;15.82;;;13.80;99.90;;;;;;5057530;28;20029;-58
2023/05/12 07:49:12;;;;;;;24.42;16.80;;;13.90;99.90;;;;;;5057155;28;20029;-57
2023/05/12 07:51:38;;;;;;;25.83;17.90;;;13.90;99.90;;;;;;5057415;28;20040;-57
2023/05/12 07:54:06;;;;;;;28.15;19.35;;;14.10;99.90;;;;;;5056913;28;20033;-61
2023/05/12 07:56:32;;;;;;;28.42;18.95;;;14.20;99.90;;;;;;5072869;28;20025;-57
2023/05/12 07:58:58;;;;;;;29.80;20.77;;;14.30;99.90;;;;;;5056810;28;20400;-61
2023/05/12 08:01:24;;;;;;;29.58;20.52;;;14.30;99.90;;;;;;5071958;28;20091;-60
2023/05/12 08:03:50;;;;;;;33.35;21.25;;;14.20;99.90;;;;;;5056179;28;20053;-59
2023/05/12 08:06:16;;;;;;;30.77;22.33;;;14.30;99.90;;;;;;5055830;28;20112;-61
2023/05/12 08:08:42;;;;;;;32.85;23.45;;;14.30;99.90;;;;;;5056793;28;20040;-63
2023/05/12 08:11:10;;;;;;;31.30;23.15;;;14.40;99.90;;;;;;5057209;28;20037;-63
2023/05/12 08:13:36;;;;;;;30.80;22.92;;;14.30;99.90;;;;;;5056620;28;20032;-61
2023/05/12 08:16:03;;;;;;;31.20;22.67;;;14.40;99.90;;;;;;5056734;28;20033;-61
2023/05/12 08:18:29;;;;;;;31.05;22.27;;;14.50;99.90;;;;;;5056586;28;20102;-65
2023/05/12 08:20:55;;;;;;;30.55;22.33;;;14.50;99.90;;;;;;5056942;28;20037;-61
2023/05/12 08:23:20;;;;;;;28.05;21.58;;;14.40;99.90;;;;;;5056706;28;20121;-61
2023/05/12 08:25:47;;;;;;;34.35;22.75;;;14.40;99.90;;;;;;5056691;28;20456;-63
2023/05/12 08:28:13;;;;;;;31.25;22.50;;;14.40;99.90;;;;;;5056029;28;20393;-62
2023/05/12 08:30:40;;;;;;;31.10;23.13;;;14.50;99.90;;;;;;5055985;28;20029;-63
2023/05/12 08:33:06;;;;;;;32.38;22.38;;;14.40;99.90;;;;;;5056541;28;20060;-61
2023/05/12 08:35:32;;;;;;;28.25;22.13;;;14.60;99.90;;;;;;5056597;28;20304;-61
2023/05/12 08:37:58;;;;;;;27.52;21.95;;;14.60;99.90;;;;;;5056467;28;20032;-61
2023/05/12 08:40:25;;;;;;;27.33;21.50;;;14.60;99.90;;;;;;5056517;28;20037;-61
2023/05/12 08:42:56;;;;;;;28.33;21.75;;;14.80;99.90;;;;;;5056724;28;20064;-61
2023/05/12 08:45:23;;;;;;;27.13;21.33;;;14.90;99.90;;;;;;5072592;28;20396;-61
2023/05/12 08:47:50;;;;;;;27.65;21.50;;;15.10;99.90;;;;;;5056449;28;20032;-60
2023/05/12 08:50:20;;;;;;;22.77;19.90;;;15.40;99.90;;;;;;5056247;28;20316;-62
2023/05/12 08:52:46;;;;;;;20.70;18.45;;;15.60;99.90;;;;;;5056656;28;20115;-59
2023/05/12 08:55:13;;;;;;;22.05;18.77;;;15.80;99.90;;;;;;5057189;28;20435;-60
2023/05/12 08:57:44;;;;;;;18.92;16.92;;;16.10;99.90;;;;;;5056106;28;20029;-62
2023/05/12 09:00:11;;;;;;;17.77;15.90;;;16.10;99.90;;;;;;5056507;28;20060;-62
2023/05/12 09:02:41;;;;;;;17.15;15.20;;;16.30;99.90;;;;;;5055704;28;20025;-61
2023/05/12 09:05:09;;;;;;;15.52;13.93;;;16.30;99.90;;;;;;5055966;28;20304;-63
2023/05/12 09:07:44;;;;;;;14.00;12.60;;;16.50;99.90;;;;;;5055760;28;20399;-61
2023/05/12 09:10:17;;;;;;;12.95;11.75;;;16.70;99.90;;;;;;5056110;28;20020;-58
2023/05/12 09:12:48;;;;;;;12.75;11.55;;;16.70;99.90;;;;;;5056690;28;20021;-63
2023/05/12 09:15:19;;;;;;;12.82;11.63;;;16.60;99.90;;;;;;5059976;28;20063;-63
2023/05/12 09:17:45;;;;;;;11.98;10.85;;;16.70;99.90;;;;;;5059946;28;20025;-64
2023/05/12 09:20:11;;;;;;;11.57;10.45;;;16.70;99.90;;;;;;5075714;28;20040;-65
2023/05/12 09:22:38;;;;;;;12.40;10.93;;;17.00;99.90;;;;;;5059745;28;20332;-66
2023/05/12 09:25:17;;;;;;;12.40;11.30;;;17.30;99.90;;;;;;5059878;28;20048;-66
2023/05/12 09:27:45;;;;;;;11.45;10.35;;;17.50;99.90;;;;;;5059743;28;20027;-67
2023/05/12 09:30:11;;;;;;;11.32;10.23;;;17.50;99.90;;;;;;5058902;28;20033;-66
2023/05/12 09:32:37;;;;;;;11.60;10.60;;;17.50;99.90;;;;;;5059682;28;20056;-65
2023/05/12 09:35:11;;;;;;;11.68;10.57;;;17.90;99.90;;;;;;5059673;28;20060;-63
2023/05/12 09:37:38;;;;;;;11.07;10.18;;;18.20;99.90;;;;;;5075395;28;20365;-62
2023/05/12 09:40:06;;;;;;;10.40;9.50;;;18.10;99.90;;;;;;5059621;28;20282;-63
2023/05/12 09:42:34;;;;;;;10.68;9.73;;;18.00;99.90;;;;;;5059881;28;20033;-62
2023/05/12 09:45:04;;;;;;;11.70;10.57;;;18.20;99.90;;;;;;5059450;28;20094;-62
2023/05/12 09:47:37;;;;;;;10.75;9.60;;;18.30;99.90;;;;;;5059626;28;20061;-62
2023/05/12 09:50:04;;;;;;;10.60;9.60;;;18.30;99.90;;;;;;5059453;28;20091;-65
2023/05/12 09:52:35;;;;;;;10.85;9.88;;;18.30;99.90;;;;;;5059549;28;20325;-65
2023/05/12 09:55:08;;;;;;;10.05;9.15;;;17.70;99.90;;;;;;5059328;28;20065;-65
2023/05/12 09:57:44;;;;;;;10.80;9.80;;;17.60;99.90;;;;;;5075321;28;20033;-66
2023/05/12 10:00:18;;;;;;;10.32;9.27;;;17.50;99.90;;;;;;5059737;28;20025;-66
2023/05/12 10:02:48;;;;;;;10.32;9.35;;;17.10;99.90;;;;;;5058325;28;20033;-65
2023/05/12 10:05:18;;;;;;;9.77;9.00;;;17.50;99.90;;;;;;5074654;28;20049;-68
2023/05/12 10:07:47;;;;;;;10.52;9.52;;;17.00;99.90;;;;;;5059005;28;20052;-67
2023/05/12 10:10:22;;;;;;;9.40;8.60;;;17.20;99.90;;;;;;5058892;28;20359;-63
2023/05/12 10:12:48;;;;;;;9.40;8.40;;;17.40;99.90;;;;;;5075152;28;20025;-66
2023/05/12 10:15:16;;;;;;;9.70;8.90;;;17.90;99.90;;;;;;5059180;28;20099;-63
2023/05/12 10:17:43;;;;;;;9.77;8.95;;;17.70;99.90;;;;;;5058936;28;20021;-63
2023/05/12 10:20:12;;;;;;;8.98;8.38;;;18.10;99.90;;;;;;5058852;28;20094;-63
2023/05/12 10:22:39;;;;;;;8.30;7.50;;;18.10;99.20;;;;;;5058205;28;20052;-64
2023/05/12 10:25:07;;;;;;;8.50;7.90;;;18.80;98.10;;;;;;5058036;28;20020;-62
2023/05/12 10:27:34;;;;;;;7.72;7.13;;;19.50;93.20;;;;;;5074681;28;20033;-63
2023/05/12 10:30:01;;;;;;;7.38;6.88;;;19.80;81.40;;;;;;5057932;28;20316;-64
2023/05/12 10:32:27;;;;;;;7.20;6.18;;;19.90;78.10;;;;;;5041134;28;20032;-71
2023/05/12 10:34:53;;;;;;;6.50;5.90;;;20.40;72.70;;;;;;5058100;28;20396;-65
2023/05/12 10:37:22;;;;;;;6.38;5.97;;;20.00;60.60;;;;;;5074560;28;20411;-67
2023/05/12 10:39:51;;;;;;;6.43;5.90;;;20.00;76.30;;;;;;5074400;28;20347;-68
2023/05/12 10:42:25;;;;;;;6.35;5.95;;;20.10;55.30;;;;;;5058455;28;20029;-65
2023/05/12 10:44:53;;;;;;;6.88;6.22;;;19.90;64.30;;;;;;5073766;28;20396;-64
2023/05/12 10:47:36;;;;;;;6.20;5.63;;;20.00;62.30;;;;;;5058269;28;20129;-62
2023/05/12 10:50:01;;;;;;;5.72;5.32;;;19.60;51.70;;;;;;5058629;28;20328;-62
2023/05/12 10:52:27;;;;;;;8.70;5.63;;;19.20;71.40;;;;;;5057954;28;20040;-61
2023/05/12 10:55:00;;;;;;;6.13;5.55;;;19.00;60.50;;;;;;5057321;28;20086;-63
2023/05/12 10:57:26;;;;;;;5.38;5.07;;;19.10;75.90;;;;;;5058235;28;20266;-60
2023/05/12 10:59:56;;;;;;;5.22;4.82;;;19.10;73.30;;;;;;5073667;28;20037;-61
2023/05/12 11:02:31;;;;;;;6.57;4.70;;;19.10;72.40;;;;;;5057940;28;20404;-58
2023/05/12 11:05:04;;;;;;;4.45;4.05;;;18.90;79.80;;;;;;5057722;28;20045;-59
2023/05/12 11:07:32;;;;;;;5.13;4.72;;;19.20;81.00;;;;;;5057721;28;20396;-60
2023/05/12 11:10:03;;;;;;;4.65;4.25;;;19.60;68.00;;;;;;5057681;28;20385;-60
2023/05/12 11:12:31;;;;;;;7.10;4.70;;;19.60;57.30;;;;;;5057914;28;20025;-61
2023/05/12 11:14:59;;;;;;;4.60;4.20;;;19.40;56.00;;;;;;5057650;28;20388;-63
2023/05/12 11:17:25;;;;;;;4.18;3.88;;;18.90;71.50;;;;;;5057530;28;20033;-62
2023/05/12 11:19:51;;;;;;;5.90;4.00;;;18.80;71.80;;;;;;5058035;28;20029;-64
2023/05/12 11:22:20;;;;;;;3.38;3.17;;;18.60;70.10;;;;;;5057577;28;20025;-63
2023/05/12 11:24:47;;;;;;;2.67;2.47;;;19.00;56.40;;;;;;5073328;28;20411;-65
2023/05/12 11:27:14;;;;;;;2.50;2.30;;;19.20;53.60;;;;;;5073244;28;20040;-63
2023/05/12 11:29:41;;;;;;;4.72;2.08;;;19.30;48.00;;;;;;5057395;28;20025;-61
2023/05/12 11:32:13;;;;;;;2.15;1.50;;;19.50;46.30;;;;;;5039901;28;20070;-63
2023/05/12 11:34:40;;;;;;;1.60;1.50;;;19.40;35.60;;;;;;5057862;28;20029;-62
2023/05/12 11:37:06;;;;;;;1.42;1.33;;;19.80;35.20;;;;;;5056871;28;20300;-63
2023/05/12 11:39:32;;;;;;;2.10;1.20;;;20.50;22.90;;;;;;5057311;28;20033;-63
2023/05/12 11:42:03;;;;;;;1.75;1.17;;;21.30;1.00;;;;;;5057229;28;20036;-64
2023/05/12 11:44:29;;;;;;;2.58;1.30;;;22.00;1.00;;;;;;5073206;28;20064;-64
2023/05/12 11:47:10;;;;;;;1.70;1.30;;;22.20;1.00;;;;;;5057197;28;20036;-65
2023/05/12 11:49:47;;;;;;;3.78;1.40;;;21.50;1.00;;;;;;5057188;28;20033;-65
2023/05/12 11:52:14;;;;;;;1.40;1.30;;;21.40;1.00;;;;;;5057083;28;20041;-64
2023/05/12 11:54:51;;;;;;;2.58;1.40;;;20.90;1.00;;;;;;5057072;28;20025;-64
2023/05/12 11:57:31;;;;;;;1.95;1.85;;;20.80;1.00;;;;;;5057399;28;20029;-65
2023/05/12 12:00:03;;;;;;;3.83;1.95;;;20.50;1.00;;;;;;5056387;28;20033;-65
2023/05/12 12:02:32;;;;;;;3.25;2.70;;;20.30;1.00;;;;;;5056941;28;20041;-65
2023/05/12 12:04:58;;;;;;;3.10;2.00;;;20.00;1.00;;;;;;5056909;28;20136;-65
2023/05/12 12:07:31;;;;;;;2.30;2.15;;;19.60;11.90;;;;;;5072641;28;20127;-64
2023/05/12 12:09:57;;;;;;;4.35;2.30;;;19.80;19.70;;;;;;5056826;28;20041;-63
2023/05/12 12:12:23;;;;;;;2.00;1.85;;;20.10;1.40;;;;;;5056706;28;20025;-66
2023/05/12 12:14:48;;;;;;;1.65;1.55;;;20.00;1.00;;;;;;5056354;28;20128;-63
2023/05/12 12:17:14;;;;;;;2.03;1.90;;;20.30;1.00;;;;;;5056738;28;20392;-63
2023/05/12 12:19:40;;;;;;;2.75;1.70;;;20.90;1.00;;;;;;5056760;28;20029;-63
2023/05/12 12:22:06;;;;;;;2.72;1.40;;;23.00;1.00;;;;;;5072701;28;20094;-62
2023/05/12 12:24:32;;;;;;;3.28;1.45;;;24.80;1.00;;;;;;5056624;28;20025;-64
2023/05/12 12:26:58;;;;;;;2.35;1.48;;;26.30;99.90;;;;;;5072630;28;20029;-65
2023/05/12 12:29:26;;;;;;;1.45;1.23;;;26.80;97.80;;;;;;5056715;28;20040;-65
2023/05/12 12:31:52;;;;;;;1.23;1.00;;;27.40;1.00;;;;;;5072442;28;20091;-63
2023/05/12 12:34:18;;;;;;;1.90;1.52;;;27.60;63.60;;;;;;5056549;28;20029;-61